sensor_id;sensor_type;location;lat;lon;timestamp;pressure;altitude;pressure_sealevel;temperature;humidity
14393;BME280;7281;42.678;23.372;2022-12-18T00:01:31;95860.19;;;8.80;65.21
14393;BME280;7281;42.678;23.372;2022-12-18T00:04:04;95849.28;;;8.83;65.36
14393;BME280;7281;42.678;23.372;2022-12-18T00:06:37;95858.59;;;8.79;64.75
14393;BME280;7281;42.678;23.372;2022-12-18T00:09:09;95856.38;;;8.94;64.83
14393;BME280;7281;42.678;23.372;2022-12-18T00:11:37;95856.16;;;8.66;65.38
14393;BME280;7281;42.678;23.372;2022-12-18T00:14:13;95859.03;;;8.76;65.07
14393;BME280;7281;42.678;23.372;2022-12-18T00:16:44;95860.94;;;8.51;65.42
14393;BME280;7281;42.678;23.372;2022-12-18T00:19:18;95866.16;;;8.51;64.80
14393;BME280;7281;42.678;23.372;2022-12-18T00:22:13;95877.25;;;8.47;65.67
14393;BME280;7281;42.678;23.372;2022-12-18T00:24:46;95867.53;;;8.72;64.65
14393;BME280;7281;42.678;23.372;2022-12-18T00:27:14;95861.09;;;8.38;65.56
14393;BME280;7281;42.678;23.372;2022-12-18T00:29:45;95877.44;;;8.81;64.51
14393;BME280;7281;42.678;23.372;2022-12-18T00:32:16;95894.03;;;8.39;65.64
14393;BME280;7281;42.678;23.372;2022-12-18T00:34:48;95886.34;;;8.26;65.69
14393;BME280;7281;42.678;23.372;2022-12-18T00:37:15;95891.78;;;8.61;64.58
14393;BME280;7281;42.678;23.372;2022-12-18T00:39:52;95887.34;;;8.79;64.01
14393;BME280;7281;42.678;23.372;2022-12-18T00:42:27;95900.25;;;8.56;63.88
14393;BME280;7281;42.678;23.372;2022-12-18T00:45:33;95886.06;;;8.70;63.64
14393;BME280;7281;42.678;23.372;2022-12-18T00:48:04;95889.78;;;9.22;62.58
14393;BME280;7281;42.678;23.372;2022-12-18T00:50:37;95897.63;;;8.74;63.02
14393;BME280;7281;42.678;23.372;2022-12-18T00:53:04;95908.53;;;8.53;63.21
14393;BME280;7281;42.678;23.372;2022-12-18T00:55:39;95904.59;;;8.98;62.52
14393;BME280;7281;42.678;23.372;2022-12-18T00:58:11;95906.97;;;8.70;62.52
14393;BME280;7281;42.678;23.372;2022-12-18T01:00:41;95908.09;;;8.56;62.97
14393;BME280;7281;42.678;23.372;2022-12-18T01:03:13;95911.66;;;8.44;63.41
14393;BME280;7281;42.678;23.372;2022-12-18T01:05:44;95910.84;;;8.43;63.54
14393;BME280;7281;42.678;23.372;2022-12-18T01:08:17;95899.97;;;8.64;61.89
14393;BME280;7281;42.678;23.372;2022-12-18T01:11:17;95919.56;;;8.91;61.77
14393;BME280;7281;42.678;23.372;2022-12-18T01:13:52;95918.31;;;8.76;62.33
14393;BME280;7281;42.678;23.372;2022-12-18T01:16:28;95921.88;;;8.63;62.35
14393;BME280;7281;42.678;23.372;2022-12-18T01:18:55;95928.00;;;8.57;62.30
14393;BME280;7281;42.678;23.372;2022-12-18T01:21:52;95928.63;;;8.35;62.82
14393;BME280;7281;42.678;23.372;2022-12-18T01:24:26;95932.25;;;8.09;63.91
14393;BME280;7281;42.678;23.372;2022-12-18T01:26:54;95923.63;;;8.33;63.07
14393;BME280;7281;42.678;23.372;2022-12-18T01:29:25;95918.75;;;8.12;63.68
14393;BME280;7281;42.678;23.372;2022-12-18T01:31:55;95928.69;;;8.28;63.17
14393;BME280;7281;42.678;23.372;2022-12-18T01:34:23;95925.38;;;8.39;62.91
14393;BME280;7281;42.678;23.372;2022-12-18T01:36:56;95936.69;;;8.33;62.64
14393;BME280;7281;42.678;23.372;2022-12-18T01:39:25;95915.59;;;8.10;62.38
14393;BME280;7281;42.678;23.372;2022-12-18T01:41:53;95921.25;;;7.82;63.48
14393;BME280;7281;42.678;23.372;2022-12-18T01:48:02;95948.59;;;7.98;63.68
14393;BME280;7281;42.678;23.372;2022-12-18T01:50:41;95948.53;;;7.80;64.09
14393;BME280;7281;42.678;23.372;2022-12-18T01:53:20;95951.09;;;7.62;64.57
14393;BME280;7281;42.678;23.372;2022-12-18T01:59:36;95950.63;;;7.96;63.07
14393;BME280;7281;42.678;23.372;2022-12-18T02:02:08;95950.09;;;8.12;62.69
14393;BME280;7281;42.678;23.372;2022-12-18T02:04:41;95961.75;;;7.85;63.38
14393;BME280;7281;42.678;23.372;2022-12-18T02:12:56;95977.34;;;7.67;62.72
14393;BME280;7281;42.678;23.372;2022-12-18T02:15:44;95965.69;;;7.69;63.20
14393;BME280;7281;42.678;23.372;2022-12-18T02:18:35;95974.06;;;7.78;63.00
14393;BME280;7281;42.678;23.372;2022-12-18T02:24:38;95981.34;;;7.94;62.37
14393;BME280;7281;42.678;23.372;2022-12-18T02:27:11;95988.34;;;8.00;62.18
14393;BME280;7281;42.678;23.372;2022-12-18T02:29:51;95987.00;;;7.60;62.39
14393;BME280;7281;42.678;23.372;2022-12-18T02:32:33;95978.59;;;7.58;62.45
14393;BME280;7281;42.678;23.372;2022-12-18T02:35:14;95979.03;;;7.48;63.17
14393;BME280;7281;42.678;23.372;2022-12-18T02:37:45;95981.19;;;7.27;63.32
14393;BME280;7281;42.678;23.372;2022-12-18T02:40:22;95986.53;;;7.00;64.58
14393;BME280;7281;42.678;23.372;2022-12-18T02:42:54;95996.38;;;6.85;65.08
14393;BME280;7281;42.678;23.372;2022-12-18T02:45:23;96012.94;;;7.10;64.28
14393;BME280;7281;42.678;23.372;2022-12-18T02:47:51;96012.19;;;6.90;64.98
14393;BME280;7281;42.678;23.372;2022-12-18T02:50:38;96008.84;;;7.28;63.83
14393;BME280;7281;42.678;23.372;2022-12-18T02:53:49;96004.47;;;7.22;63.64
14393;BME280;7281;42.678;23.372;2022-12-18T02:56:35;95999.53;;;7.45;63.25
14393;BME280;7281;42.678;23.372;2022-12-18T02:59:41;96002.34;;;7.05;63.99
14393;BME280;7281;42.678;23.372;2022-12-18T03:02:44;96014.59;;;6.98;64.42
14393;BME280;7281;42.678;23.372;2022-12-18T03:05:47;96022.28;;;7.25;63.98
14393;BME280;7281;42.678;23.372;2022-12-18T03:08:23;96025.38;;;7.08;64.11
14393;BME280;7281;42.678;23.372;2022-12-18T03:11:02;96025.00;;;6.98;64.79
14393;BME280;7281;42.678;23.372;2022-12-18T03:13:58;96027.00;;;6.96;64.21
14393;BME280;7281;42.678;23.372;2022-12-18T03:16:31;96023.31;;;7.24;63.74
14393;BME280;7281;42.678;23.372;2022-12-18T03:19:09;96026.66;;;7.75;62.73
14393;BME280;7281;42.678;23.372;2022-12-18T03:22:04;96026.31;;;7.65;62.20
14393;BME280;7281;42.678;23.372;2022-12-18T03:24:46;96022.06;;;7.33;63.36
14393;BME280;7281;42.678;23.372;2022-12-18T03:27:47;96027.38;;;7.13;63.55
14393;BME280;7281;42.678;23.372;2022-12-18T03:30:26;96033.69;;;7.37;62.65
14393;BME280;7281;42.678;23.372;2022-12-18T03:50:22;96047.97;;;7.28;62.28
14393;BME280;7281;42.678;23.372;2022-12-18T03:53:02;96058.72;;;6.80;62.40
14393;BME280;7281;42.678;23.372;2022-12-18T03:55:39;96063.44;;;7.16;62.05
14393;BME280;7281;42.678;23.372;2022-12-18T03:58:13;96070.63;;;7.27;60.51
14393;BME280;7281;42.678;23.372;2022-12-18T04:01:15;96089.28;;;7.17;60.78
14393;BME280;7281;42.678;23.372;2022-12-18T04:03:47;96082.66;;;7.22;61.36
14393;BME280;7281;42.678;23.372;2022-12-18T04:06:45;96074.06;;;7.08;61.66
14393;BME280;7281;42.678;23.372;2022-12-18T04:09:44;96064.72;;;6.81;62.00
14393;BME280;7281;42.678;23.372;2022-12-18T04:12:18;96083.13;;;7.05;61.03
14393;BME280;7281;42.678;23.372;2022-12-18T04:15:34;96080.47;;;7.18;61.14
14393;BME280;7281;42.678;23.372;2022-12-18T04:18:16;96095.34;;;7.11;61.27
14393;BME280;7281;42.678;23.372;2022-12-18T04:21:10;96097.88;;;7.25;60.57
14393;BME280;7281;42.678;23.372;2022-12-18T04:23:43;96101.69;;;7.29;59.84
14393;BME280;7281;42.678;23.372;2022-12-18T04:26:18;96100.25;;;7.46;59.70
14393;BME280;7281;42.678;23.372;2022-12-18T04:29:04;96104.75;;;7.12;60.11
14393;BME280;7281;42.678;23.372;2022-12-18T04:31:56;96110.75;;;7.19;59.90
14393;BME280;7281;42.678;23.372;2022-12-18T04:34:51;96113.97;;;7.08;59.69
14393;BME280;7281;42.678;23.372;2022-12-18T04:37:51;96106.34;;;7.13;59.83
14393;BME280;7281;42.678;23.372;2022-12-18T04:40:19;96112.75;;;7.17;59.10
14393;BME280;7281;42.678;23.372;2022-12-18T04:43:16;96115.16;;;7.26;58.55
14393;BME280;7281;42.678;23.372;2022-12-18T04:45:47;96119.13;;;7.35;58.75
14393;BME280;7281;42.678;23.372;2022-12-18T04:48:52;96122.91;;;7.45;58.46
14393;BME280;7281;42.678;23.372;2022-12-18T04:51:21;96133.41;;;7.26;58.20
14393;BME280;7281;42.678;23.372;2022-12-18T04:54:19;96131.16;;;7.36;58.70
14393;BME280;7281;42.678;23.372;2022-12-18T04:56:49;96136.84;;;6.93;59.02
14393;BME280;7281;42.678;23.372;2022-12-18T05:00:12;96143.25;;;7.17;57.74
14393;BME280;7281;42.678;23.372;2022-12-18T05:03:09;96146.47;;;6.73;58.62
14393;BME280;7281;42.678;23.372;2022-12-18T05:06:01;96140.47;;;6.79;58.44
14393;BME280;7281;42.678;23.372;2022-12-18T05:08:29;96137.66;;;7.00;57.93
14393;BME280;7281;42.678;23.372;2022-12-18T05:11:09;96143.25;;;6.84;58.48
14393;BME280;7281;42.678;23.372;2022-12-18T05:13:37;96144.69;;;6.87;58.29
14393;BME280;7281;42.678;23.372;2022-12-18T05:17:01;96159.72;;;6.72;57.99
14393;BME280;7281;42.678;23.372;2022-12-18T05:19:55;96165.91;;;6.90;58.18
14393;BME280;7281;42.678;23.372;2022-12-18T05:22:47;96166.13;;;6.63;59.00
14393;BME280;7281;42.678;23.372;2022-12-18T05:44:46;96209.38;;;6.57;58.13
14393;BME280;7281;42.678;23.372;2022-12-18T05:47:13;96211.00;;;6.97;57.23
14393;BME280;7281;42.678;23.372;2022-12-18T05:49:40;96191.19;;;7.09;56.54
14393;BME280;7281;42.678;23.372;2022-12-18T05:52:06;96200.59;;;6.97;56.89
14393;BME280;7281;42.678;23.372;2022-12-18T05:54:34;96193.00;;;7.02;56.65
14393;BME280;7281;42.678;23.372;2022-12-18T05:57:00;96201.75;;;7.41;56.42
14393;BME280;7281;42.678;23.372;2022-12-18T05:59:27;96210.41;;;7.22;55.98
14393;BME280;7281;42.678;23.372;2022-12-18T06:01:54;96215.81;;;6.74;57.22
14393;BME280;7281;42.678;23.372;2022-12-18T06:04:22;96217.84;;;7.11;55.97
14393;BME280;7281;42.678;23.372;2022-12-18T06:06:49;96216.44;;;6.76;56.09
14393;BME280;7281;42.678;23.372;2022-12-18T06:09:16;96217.84;;;7.11;56.02
14393;BME280;7281;42.678;23.372;2022-12-18T06:11:42;96227.44;;;7.04;56.42
14393;BME280;7281;42.678;23.372;2022-12-18T06:14:09;96229.06;;;7.05;55.99
14393;BME280;7281;42.678;23.372;2022-12-18T06:16:36;96220.22;;;6.93;55.86
14393;BME280;7281;42.678;23.372;2022-12-18T06:19:05;96232.69;;;6.91;56.23
14393;BME280;7281;42.678;23.372;2022-12-18T06:21:32;96239.41;;;6.53;57.48
14393;BME280;7281;42.678;23.372;2022-12-18T06:24:00;96241.88;;;6.74;56.54
14393;BME280;7281;42.678;23.372;2022-12-18T06:26:27;96233.88;;;6.82;55.83
14393;BME280;7281;42.678;23.372;2022-12-18T06:28:55;96232.66;;;7.04;56.20
14393;BME280;7281;42.678;23.372;2022-12-18T06:31:23;96234.25;;;7.12;56.02
14393;BME280;7281;42.678;23.372;2022-12-18T06:33:49;96260.75;;;7.02;55.43
14393;BME280;7281;42.678;23.372;2022-12-18T06:36:16;96252.69;;;6.84;56.21
14393;BME280;7281;42.678;23.372;2022-12-18T06:38:43;96259.50;;;6.79;56.06
14393;BME280;7281;42.678;23.372;2022-12-18T06:41:21;96261.09;;;6.73;56.40
14393;BME280;7281;42.678;23.372;2022-12-18T06:43:47;96264.53;;;6.87;56.14
14393;BME280;7281;42.678;23.372;2022-12-18T06:46:15;96267.16;;;7.26;55.76
14393;BME280;7281;42.678;23.372;2022-12-18T06:48:47;96264.75;;;6.98;55.45
14393;BME280;7281;42.678;23.372;2022-12-18T06:51:19;96269.16;;;6.91;56.18
14393;BME280;7281;42.678;23.372;2022-12-18T06:53:47;96259.34;;;7.26;55.30
14393;BME280;7281;42.678;23.372;2022-12-18T06:56:14;96252.66;;;6.58;55.55
14393;BME280;7281;42.678;23.372;2022-12-18T06:58:41;96260.50;;;6.84;55.96
14393;BME280;7281;42.678;23.372;2022-12-18T07:01:10;96272.97;;;7.08;55.32
14393;BME280;7281;42.678;23.372;2022-12-18T07:03:39;96279.59;;;6.91;54.99
14393;BME280;7281;42.678;23.372;2022-12-18T07:06:13;96271.56;;;6.99;55.48
14393;BME280;7281;42.678;23.372;2022-12-18T07:08:40;96281.13;;;6.60;55.57
14393;BME280;7281;42.678;23.372;2022-12-18T07:11:07;96285.66;;;6.45;55.70
14393;BME280;7281;42.678;23.372;2022-12-18T07:13:34;96287.16;;;6.86;54.11
14393;BME280;7281;42.678;23.372;2022-12-18T07:16:12;96286.94;;;6.62;54.73
14393;BME280;7281;42.678;23.372;2022-12-18T07:18:49;96284.31;;;6.68;54.69
14393;BME280;7281;42.678;23.372;2022-12-18T07:21:18;96294.59;;;6.89;54.71
14393;BME280;7281;42.678;23.372;2022-12-18T07:23:46;96289.16;;;6.84;54.50
14393;BME280;7281;42.678;23.372;2022-12-18T07:26:18;96270.34;;;7.35;52.77
14393;BME280;7281;42.678;23.372;2022-12-18T07:28:46;96291.59;;;6.99;54.08
14393;BME280;7281;42.678;23.372;2022-12-18T07:31:18;96294.03;;;7.07;53.64
14393;BME280;7281;42.678;23.372;2022-12-18T07:33:47;96302.22;;;6.97;54.35
14393;BME280;7281;42.678;23.372;2022-12-18T07:36:15;96309.25;;;7.03;53.99
14393;BME280;7281;42.678;23.372;2022-12-18T07:38:42;96302.06;;;7.32;52.91
14393;BME280;7281;42.678;23.372;2022-12-18T07:41:11;96300.44;;;7.17;53.82
14393;BME280;7281;42.678;23.372;2022-12-18T07:43:39;96299.66;;;7.37;53.53
14393;BME280;7281;42.678;23.372;2022-12-18T07:46:09;96318.06;;;6.96;54.19
14393;BME280;7281;42.678;23.372;2022-12-18T07:48:38;96317.47;;;7.00;54.36
14393;BME280;7281;42.678;23.372;2022-12-18T07:51:06;96323.69;;;6.93;54.98
14393;BME280;7281;42.678;23.372;2022-12-18T07:53:35;96314.09;;;7.26;54.29
14393;BME280;7281;42.678;23.372;2022-12-18T07:56:10;96318.28;;;7.07;53.98
14393;BME280;7281;42.678;23.372;2022-12-18T07:58:56;96333.81;;;6.62;55.47
14393;BME280;7281;42.678;23.372;2022-12-18T08:01:23;96330.34;;;6.48;55.53
14393;BME280;7281;42.678;23.372;2022-12-18T08:03:50;96336.00;;;6.58;55.50
14393;BME280;7281;42.678;23.372;2022-12-18T08:06:18;96342.06;;;6.78;55.06
14393;BME280;7281;42.678;23.372;2022-12-18T08:08:54;96354.50;;;6.76;55.61
14393;BME280;7281;42.678;23.372;2022-12-18T08:11:22;96353.53;;;6.90;55.04
14393;BME280;7281;42.678;23.372;2022-12-18T08:13:50;96353.72;;;6.95;55.20
14393;BME280;7281;42.678;23.372;2022-12-18T08:16:17;96357.63;;;6.59;55.64
14393;BME280;7281;42.678;23.372;2022-12-18T08:18:45;96374.41;;;6.43;56.13
14393;BME280;7281;42.678;23.372;2022-12-18T08:23:39;96370.25;;;7.22;58.03
14393;BME280;7281;42.678;23.372;2022-12-18T08:26:11;96366.19;;;7.06;55.27
14393;BME280;7281;42.678;23.372;2022-12-18T08:28:38;96380.00;;;6.40;56.48
14393;BME280;7281;42.678;23.372;2022-12-18T08:31:06;96382.00;;;6.38;57.00
14393;BME280;7281;42.678;23.372;2022-12-18T08:33:34;96387.69;;;5.86;57.57
14393;BME280;7281;42.678;23.372;2022-12-18T08:36:01;96387.72;;;5.93;57.19
14393;BME280;7281;42.678;23.372;2022-12-18T08:38:28;96377.88;;;6.16;56.85
14393;BME280;7281;42.678;23.372;2022-12-18T08:41:03;96385.91;;;6.21;56.93
14393;BME280;7281;42.678;23.372;2022-12-18T08:43:30;96385.50;;;6.24;58.86
14393;BME280;7281;42.678;23.372;2022-12-18T08:46:17;96385.25;;;6.53;56.59
14393;BME280;7281;42.678;23.372;2022-12-18T08:48:44;96383.59;;;6.39;58.62
14393;BME280;7281;42.678;23.372;2022-12-18T08:51:11;96387.81;;;6.94;54.50
14393;BME280;7281;42.678;23.372;2022-12-18T08:53:39;96396.06;;;6.50;55.23
14393;BME280;7281;42.678;23.372;2022-12-18T08:56:07;96384.88;;;6.56;55.12
14393;BME280;7281;42.678;23.372;2022-12-18T08:58:34;96394.94;;;6.66;54.99
14393;BME280;7281;42.678;23.372;2022-12-18T09:01:05;96391.47;;;6.52;55.13
14393;BME280;7281;42.678;23.372;2022-12-18T09:03:32;96385.41;;;6.92;54.68
14393;BME280;7281;42.678;23.372;2022-12-18T09:05:59;96381.31;;;6.23;54.65
14393;BME280;7281;42.678;23.372;2022-12-18T09:08:26;96386.81;;;6.41;54.15
14393;BME280;7281;42.678;23.372;2022-12-18T09:10:53;96381.84;;;6.12;53.78
14393;BME280;7281;42.678;23.372;2022-12-18T09:13:21;96388.03;;;6.45;53.41
14393;BME280;7281;42.678;23.372;2022-12-18T09:15:53;96383.47;;;7.27;54.35
14393;BME280;7281;42.678;23.372;2022-12-18T09:18:22;96379.66;;;7.23;53.10
14393;BME280;7281;42.678;23.372;2022-12-18T09:20:49;96379.00;;;7.01;52.03
14393;BME280;7281;42.678;23.372;2022-12-18T09:23:18;96377.38;;;6.87;52.19
14393;BME280;7281;42.678;23.372;2022-12-18T09:25:46;96385.00;;;6.95;52.04
14393;BME280;7281;42.678;23.372;2022-12-18T09:28:15;96375.50;;;6.68;51.73
14393;BME280;7281;42.678;23.372;2022-12-18T09:30:48;96376.63;;;7.13;51.22
14393;BME280;7281;42.678;23.372;2022-12-18T09:33:16;96372.94;;;6.88;51.51
14393;BME280;7281;42.678;23.372;2022-12-18T09:35:44;96383.56;;;6.86;51.71
14393;BME280;7281;42.678;23.372;2022-12-18T09:38:16;96389.47;;;7.14;50.96
14393;BME280;7281;42.678;23.372;2022-12-18T09:40:52;96390.38;;;6.81;51.46
14393;BME280;7281;42.678;23.372;2022-12-18T09:43:25;96388.97;;;6.78;52.04
14393;BME280;7281;42.678;23.372;2022-12-18T09:45:58;96393.84;;;7.01;51.05
14393;BME280;7281;42.678;23.372;2022-12-18T09:48:30;96394.38;;;6.83;51.84
14393;BME280;7281;42.678;23.372;2022-12-18T09:51:02;96384.78;;;6.84;52.13
14393;BME280;7281;42.678;23.372;2022-12-18T09:53:33;96382.22;;;7.03;51.47
14393;BME280;7281;42.678;23.372;2022-12-18T09:56:05;96383.00;;;6.97;52.10
14393;BME280;7281;42.678;23.372;2022-12-18T09:58:36;96387.84;;;7.00;53.72
14393;BME280;7281;42.678;23.372;2022-12-18T10:01:12;96385.69;;;7.17;53.51
14393;BME280;7281;42.678;23.372;2022-12-18T10:03:43;96371.72;;;6.77;52.11
14393;BME280;7281;42.678;23.372;2022-12-18T10:06:18;96386.06;;;7.07;50.50
14393;BME280;7281;42.678;23.372;2022-12-18T10:09:01;96396.59;;;6.86;50.94
14393;BME280;7281;42.678;23.372;2022-12-18T10:16:57;96398.84;;;6.89;50.51
14393;BME280;7281;42.678;23.372;2022-12-18T10:22:14;96387.91;;;7.40;49.76
14393;BME280;7281;42.678;23.372;2022-12-18T10:27:30;96388.31;;;7.37;50.05
14393;BME280;7281;42.678;23.372;2022-12-18T10:30:00;96393.97;;;7.66;49.29
14393;BME280;7281;42.678;23.372;2022-12-18T10:32:30;96396.75;;;7.39;49.51
14393;BME280;7281;42.678;23.372;2022-12-18T10:34:57;96388.75;;;7.66;49.80
14393;BME280;7281;42.678;23.372;2022-12-18T10:37:29;96368.25;;;7.70;49.73
14393;BME280;7281;42.678;23.372;2022-12-18T10:40:15;96379.47;;;7.83;48.79
14393;BME280;7281;42.678;23.372;2022-12-18T10:43:10;96384.31;;;7.80;48.89
14393;BME280;7281;42.678;23.372;2022-12-18T10:45:40;96388.53;;;7.55;48.68
14393;BME280;7281;42.678;23.372;2022-12-18T10:48:20;96373.66;;;7.49;48.96
14393;BME280;7281;42.678;23.372;2022-12-18T10:50:50;96379.88;;;7.54;55.40
14393;BME280;7281;42.678;23.372;2022-12-18T10:53:40;96369.00;;;8.03;49.79
14393;BME280;7281;42.678;23.372;2022-12-18T10:56:08;96376.47;;;7.67;49.91
14393;BME280;7281;42.678;23.372;2022-12-18T10:58:37;96378.69;;;7.70;49.96
14393;BME280;7281;42.678;23.372;2022-12-18T11:03:34;96370.81;;;8.09;48.99
14393;BME280;7281;42.678;23.372;2022-12-18T11:06:25;96377.69;;;7.58;50.22
14393;BME280;7281;42.678;23.372;2022-12-18T11:09:21;96384.72;;;7.90;49.01
14393;BME280;7281;42.678;23.372;2022-12-18T11:11:53;96388.31;;;7.63;50.01
14393;BME280;7281;42.678;23.372;2022-12-18T11:14:44;96377.28;;;7.67;51.53
14393;BME280;7281;42.678;23.372;2022-12-18T11:17:32;96379.84;;;8.13;50.75
14393;BME280;7281;42.678;23.372;2022-12-18T11:20:04;96377.69;;;7.64;48.99
14393;BME280;7281;42.678;23.372;2022-12-18T11:22:36;96380.28;;;7.77;50.96
14393;BME280;7281;42.678;23.372;2022-12-18T11:25:16;96383.09;;;7.69;48.41
14393;BME280;7281;42.678;23.372;2022-12-18T11:33:42;96383.31;;;7.55;49.60
14393;BME280;7281;42.678;23.372;2022-12-18T11:36:40;96400.97;;;7.46;49.39
14393;BME280;7281;42.678;23.372;2022-12-18T11:44:52;96387.13;;;7.59;49.33
14393;BME280;7281;42.678;23.372;2022-12-18T11:47:34;96393.34;;;7.71;49.70
14393;BME280;7281;42.678;23.372;2022-12-18T11:50:12;96383.13;;;7.50;49.58
14393;BME280;7281;42.678;23.372;2022-12-18T11:52:40;96388.31;;;7.69;49.16
14393;BME280;7281;42.678;23.372;2022-12-18T12:01:07;96389.88;;;7.25;49.41
14393;BME280;7281;42.678;23.372;2022-12-18T12:06:25;96378.09;;;7.81;50.12
14393;BME280;7281;42.678;23.372;2022-12-18T12:14:38;96391.91;;;7.36;49.12
14393;BME280;7281;42.678;23.372;2022-12-18T12:17:17;96389.09;;;7.31;48.98
14393;BME280;7281;42.678;23.372;2022-12-18T12:19:59;96389.13;;;7.44;49.44
14393;BME280;7281;42.678;23.372;2022-12-18T12:22:49;96392.44;;;6.98;50.65
14393;BME280;7281;42.678;23.372;2022-12-18T12:34:23;96393.66;;;7.15;49.59
14393;BME280;7281;42.678;23.372;2022-12-18T12:39:43;96403.88;;;7.10;50.03
14393;BME280;7281;42.678;23.372;2022-12-18T12:42:18;96400.47;;;7.03;50.08
14393;BME280;7281;42.678;23.372;2022-12-18T12:45:05;96402.13;;;7.24;49.85
14393;BME280;7281;42.678;23.372;2022-12-18T12:47:38;96395.53;;;7.35;50.04
14393;BME280;7281;42.678;23.372;2022-12-18T12:50:13;96400.72;;;7.22;50.04
14393;BME280;7281;42.678;23.372;2022-12-18T12:52:52;96393.88;;;7.07;49.81
14393;BME280;7281;42.678;23.372;2022-12-18T12:55:22;96404.75;;;7.31;49.92
14393;BME280;7281;42.678;23.372;2022-12-18T12:58:06;96414.72;;;7.14;51.08
14393;BME280;7281;42.678;23.372;2022-12-18T13:00:52;96401.97;;;7.39;53.66
14393;BME280;7281;42.678;23.372;2022-12-18T13:06:48;96418.81;;;7.56;49.39
14393;BME280;7281;42.678;23.372;2022-12-18T13:09:17;96415.22;;;7.57;48.93
14393;BME280;7281;42.678;23.372;2022-12-18T13:11:46;96415.13;;;7.17;50.10
14393;BME280;7281;42.678;23.372;2022-12-18T13:14:39;96424.16;;;7.15;50.63
14393;BME280;7281;42.678;23.372;2022-12-18T13:19:52;96435.63;;;7.27;49.66
14393;BME280;7281;42.678;23.372;2022-12-18T13:25:28;96434.00;;;7.13;49.67
14393;BME280;7281;42.678;23.372;2022-12-18T13:28:18;96441.19;;;7.17;50.05
14393;BME280;7281;42.678;23.372;2022-12-18T13:30:55;96443.19;;;7.15;50.68
14393;BME280;7281;42.678;23.372;2022-12-18T13:38:44;96447.28;;;7.31;49.70
14393;BME280;7281;42.678;23.372;2022-12-18T13:46:41;96452.44;;;7.25;50.41
14393;BME280;7281;42.678;23.372;2022-12-18T13:51:48;96463.72;;;7.45;49.46
14393;BME280;7281;42.678;23.372;2022-12-18T13:56:44;96463.28;;;7.22;49.72
14393;BME280;7281;42.678;23.372;2022-12-18T13:59:21;96463.16;;;7.56;49.49
14393;BME280;7281;42.678;23.372;2022-12-18T14:01:51;96466.59;;;7.76;48.77
14393;BME280;7281;42.678;23.372;2022-12-18T14:06:55;96478.63;;;7.70;49.79
14393;BME280;7281;42.678;23.372;2022-12-18T14:09:26;96472.97;;;7.41;49.58
14393;BME280;7281;42.678;23.372;2022-12-18T14:11:55;96477.78;;;7.44;49.61
14393;BME280;7281;42.678;23.372;2022-12-18T14:14:44;96473.19;;;7.46;49.35
14393;BME280;7281;42.678;23.372;2022-12-18T14:17:11;96483.31;;;7.21;49.81
14393;BME280;7281;42.678;23.372;2022-12-18T14:19:47;96470.84;;;7.03;50.30
14393;BME280;7281;42.678;23.372;2022-12-18T14:22:24;96476.44;;;7.61;48.93
14393;BME280;7281;42.678;23.372;2022-12-18T14:28:00;96475.38;;;7.49;50.03
14393;BME280;7281;42.678;23.372;2022-12-18T14:30:36;96476.16;;;7.30;49.21
14393;BME280;7281;42.678;23.372;2022-12-18T14:38:37;96488.06;;;6.98;49.25
14393;BME280;7281;42.678;23.372;2022-12-18T14:41:15;96486.88;;;7.00;49.59
14393;BME280;7281;42.678;23.372;2022-12-18T14:43:44;96487.09;;;7.12;48.99
14393;BME280;7281;42.678;23.372;2022-12-18T14:46:44;96478.16;;;6.80;49.61
14393;BME280;7281;42.678;23.372;2022-12-18T14:49:31;96481.38;;;7.30;48.46
14393;BME280;7281;42.678;23.372;2022-12-18T14:52:05;96467.25;;;7.11;48.64
14393;BME280;7281;42.678;23.372;2022-12-18T14:54:35;96492.50;;;7.10;48.89
14393;BME280;7281;42.678;23.372;2022-12-18T14:57:22;96489.22;;;6.95;49.05
14393;BME280;7281;42.678;23.372;2022-12-18T14:59:50;96490.13;;;7.15;47.86
14393;BME280;7281;42.678;23.372;2022-12-18T15:02:23;96491.44;;;7.46;48.61
14393;BME280;7281;42.678;23.372;2022-12-18T15:05:27;96494.28;;;7.03;47.45
14393;BME280;7281;42.678;23.372;2022-12-18T15:07:57;96494.50;;;7.08;47.82
14393;BME280;7281;42.678;23.372;2022-12-18T15:10:27;96491.63;;;6.90;47.66
14393;BME280;7281;42.678;23.372;2022-12-18T15:20:46;96501.56;;;6.74;46.59
14393;BME280;7281;42.678;23.372;2022-12-18T15:23:18;96506.78;;;7.14;45.85
14393;BME280;7281;42.678;23.372;2022-12-18T15:25:47;96510.41;;;6.79;47.00
14393;BME280;7281;42.678;23.372;2022-12-18T15:28:31;96504.94;;;7.08;46.17
14393;BME280;7281;42.678;23.372;2022-12-18T15:33:38;96507.59;;;7.28;47.11
14393;BME280;7281;42.678;23.372;2022-12-18T15:36:14;96509.78;;;7.11;46.48
14393;BME280;7281;42.678;23.372;2022-12-18T15:38:46;96510.22;;;7.22;46.30
14393;BME280;7281;42.678;23.372;2022-12-18T15:41:15;96521.03;;;7.18;45.70
14393;BME280;7281;42.678;23.372;2022-12-18T15:43:51;96529.53;;;7.40;46.05
14393;BME280;7281;42.678;23.372;2022-12-18T15:46:23;96529.13;;;7.37;48.20
14393;BME280;7281;42.678;23.372;2022-12-18T15:48:52;96533.94;;;7.40;47.52
14393;BME280;7281;42.678;23.372;2022-12-18T15:51:36;96540.16;;;6.91;48.06
14393;BME280;7281;42.678;23.372;2022-12-18T15:54:06;96538.19;;;7.00;47.75
14393;BME280;7281;42.678;23.372;2022-12-18T15:56:36;96536.75;;;6.97;48.44
14393;BME280;7281;42.678;23.372;2022-12-18T15:59:22;96544.16;;;6.94;47.20
14393;BME280;7281;42.678;23.372;2022-12-18T16:01:51;96551.66;;;6.69;47.42
14393;BME280;7281;42.678;23.372;2022-12-18T16:04:22;96553.53;;;6.54;47.25
14393;BME280;7281;42.678;23.372;2022-12-18T16:06:49;96558.34;;;6.57;48.10
14393;BME280;7281;42.678;23.372;2022-12-18T16:09:36;96564.50;;;6.22;50.30
14393;BME280;7281;42.678;23.372;2022-12-18T16:12:04;96576.75;;;6.49;51.29
14393;BME280;7281;42.678;23.372;2022-12-18T16:14:32;96568.44;;;6.39;48.77
14393;BME280;7281;42.678;23.372;2022-12-18T16:17:01;96568.16;;;6.55;49.13
14393;BME280;7281;42.678;23.372;2022-12-18T16:19:28;96573.13;;;6.50;48.21
14393;BME280;7281;42.678;23.372;2022-12-18T16:21:58;96569.28;;;6.74;48.13
14393;BME280;7281;42.678;23.372;2022-12-18T16:24:27;96568.47;;;6.73;47.65
14393;BME280;7281;42.678;23.372;2022-12-18T16:26:56;96572.56;;;6.27;48.60